createdAt,value
2018-04-27T00:00:38.364Z,1012.47
2018-04-27T00:01:38.384Z,1012.47
2018-04-27T00:02:38.406Z,1012.47
2018-04-27T00:03:38.415Z,1012.46
2018-04-27T00:04:38.388Z,1012.44
2018-04-27T00:05:38.414Z,1012.42
2018-04-27T00:06:38.453Z,1012.44
2018-04-27T00:07:38.469Z,1012.44
2018-04-27T00:08:38.456Z,1012.45
2018-04-27T00:09:38.437Z,1012.44
2018-04-27T00:10:38.459Z,1012.43
2018-04-27T00:11:38.453Z,1012.37
2018-04-27T00:12:38.515Z,1012.37
2018-04-27T00:13:38.506Z,1012.37
2018-04-27T00:14:38.493Z,1012.33
2018-04-27T00:15:38.521Z,1012.30
2018-04-27T00:16:38.503Z,1012.32
2018-04-27T00:17:38.513Z,1012.35
2018-04-27T00:18:38.557Z,1012.33
2018-04-27T00:19:38.535Z,1012.32
2018-04-27T00:20:38.554Z,1012.32
2018-04-27T00:21:38.556Z,1012.30
2018-04-27T00:22:38.568Z,1012.27
2018-04-27T00:23:38.618Z,1012.31
2018-04-27T00:24:38.606Z,1012.32
2018-04-27T00:25:38.596Z,1012.36
2018-04-27T00:26:38.597Z,1012.38
2018-04-27T00:27:38.612Z,1012.37
2018-04-27T00:28:38.623Z,1012.39
2018-04-27T00:29:38.665Z,1012.39
2018-04-27T00:30:38.660Z,1012.41
2018-04-27T00:31:38.645Z,1012.41
2018-04-27T00:32:38.655Z,1012.42
2018-04-27T00:33:38.679Z,1012.46
2018-04-27T00:34:38.696Z,1012.45
2018-04-27T00:35:38.709Z,1012.40
2018-04-27T00:36:38.691Z,1012.40
2018-04-27T00:37:38.721Z,1012.39
2018-04-27T00:38:38.704Z,1012.36
2018-04-27T00:39:38.725Z,1012.43
2018-04-27T00:40:38.796Z,1012.42
2018-04-27T00:41:38.764Z,1012.37
2018-04-27T00:42:38.738Z,1012.35
2018-04-27T00:43:38.745Z,1012.30
2018-04-27T00:44:38.781Z,1012.29
2018-04-27T00:45:38.777Z,1012.28
2018-04-27T00:46:38.823Z,1012.28
2018-04-27T00:47:38.781Z,1012.30
2018-04-27T00:48:38.804Z,1012.32
2018-04-27T00:49:38.819Z,1012.33
2018-04-27T00:50:38.847Z,1012.33
2018-04-27T00:51:38.829Z,1012.31
2018-04-27T00:52:38.915Z,1012.32
2018-04-27T00:53:38.842Z,1012.32
2018-04-27T00:54:38.848Z,1012.32
2018-04-27T00:55:38.869Z,1012.33
2018-04-27T00:56:38.868Z,1012.27
2018-04-27T00:57:38.875Z,1012.25
2018-04-27T00:58:38.928Z,1012.24
2018-04-27T00:59:38.928Z,1012.25
2018-04-27T01:00:38.912Z,1012.25
2018-04-27T01:01:38.921Z,1012.22
2018-04-27T01:02:38.925Z,1012.24
2018-04-27T01:03:38.974Z,1012.25
2018-04-27T01:04:38.941Z,1012.26
2018-04-27T01:05:38.960Z,1012.28
2018-04-27T01:06:38.991Z,1012.28
2018-04-27T01:07:38.966Z,1012.26
2018-04-27T01:08:39.030Z,1012.23
2018-04-27T01:09:38.993Z,1012.15
2018-04-27T01:10:38.996Z,1012.21
2018-04-27T01:11:39.014Z,1012.21
2018-04-27T01:12:39.012Z,1012.24
2018-04-27T01:13:39.077Z,1012.26
2018-04-27T01:14:39.043Z,1012.29
2018-04-27T01:15:39.052Z,1012.31
2018-04-27T01:16:39.062Z,1012.29
2018-04-27T01:17:39.079Z,1012.24
2018-04-27T01:18:39.113Z,1012.26
2018-04-27T01:19:39.076Z,1012.24
2018-04-27T01:20:39.084Z,1012.25
2018-04-27T01:21:39.107Z,1012.25
2018-04-27T01:22:39.103Z,1012.22
2018-04-27T01:23:39.156Z,1012.28
2018-04-27T01:24:39.147Z,1012.26
2018-04-27T01:25:39.130Z,1012.25
2018-04-27T01:26:39.183Z,1012.25
2018-04-27T01:27:39.158Z,1012.24
2018-04-27T01:28:39.208Z,1012.23
2018-04-27T01:29:39.165Z,1012.19
2018-04-27T01:30:39.221Z,1012.23
2018-04-27T01:31:39.215Z,1012.23
2018-04-27T01:32:39.205Z,1012.24
2018-04-27T01:33:39.263Z,1012.24
2018-04-27T01:34:39.209Z,1012.24
2018-04-27T01:35:39.282Z,1012.25
2018-04-27T01:36:39.236Z,1012.24
2018-04-27T01:37:39.235Z,1012.22
2018-04-27T01:38:39.243Z,1012.21
2018-04-27T01:39:39.277Z,1012.22
2018-04-27T01:40:39.329Z,1012.23
2018-04-27T01:41:39.272Z,1012.19
2018-04-27T01:42:39.294Z,1012.19
2018-04-27T01:43:39.295Z,1012.21
2018-04-27T01:44:39.309Z,1012.27
2018-04-27T01:45:39.307Z,1012.30
2018-04-27T01:46:39.391Z,1012.32
2018-04-27T01:47:39.336Z,1012.34
2018-04-27T01:48:39.346Z,1012.36
2018-04-27T01:49:39.359Z,1012.31
2018-04-27T01:50:39.351Z,1012.34
2018-04-27T01:51:39.373Z,1012.34
2018-04-27T01:52:39.437Z,1012.32
2018-04-27T01:53:39.404Z,1012.34
2018-04-27T01:54:39.402Z,1012.32
2018-04-27T01:55:39.430Z,1012.34
2018-04-27T01:56:39.406Z,1012.31
2018-04-27T01:57:39.452Z,1012.31
2018-04-27T01:58:39.425Z,1012.35
2018-04-27T01:59:39.459Z,1012.34
2018-04-27T02:00:39.477Z,1012.35
2018-04-27T02:01:39.450Z,1012.34
2018-04-27T02:02:39.522Z,1012.29
2018-04-27T02:03:39.483Z,1012.32
2018-04-27T02:04:39.496Z,1012.30
2018-04-27T02:05:39.483Z,1012.33
2018-04-27T02:06:39.505Z,1012.32
2018-04-27T02:07:39.507Z,1012.33
2018-04-27T02:08:39.580Z,1012.34
2018-04-27T02:09:39.519Z,1012.32
2018-04-27T02:10:39.538Z,1012.33
2018-04-27T02:11:39.543Z,1012.31
2018-04-27T02:12:39.545Z,1012.28
2018-04-27T02:13:39.541Z,1012.27
2018-04-27T02:14:39.580Z,1012.28
2018-04-27T02:15:39.617Z,1012.27
2018-04-27T02:16:39.572Z,1012.26
2018-04-27T02:17:39.586Z,1012.26
2018-04-27T02:18:39.609Z,1012.26
2018-04-27T02:19:39.592Z,1012.26
2018-04-27T02:20:39.645Z,1012.26
2018-04-27T02:21:39.623Z,1012.29
2018-04-27T02:22:39.637Z,1012.27
2018-04-27T02:23:39.679Z,1012.25
2018-04-27T02:24:39.645Z,1012.29
2018-04-27T02:25:39.654Z,1012.34
2018-04-27T02:26:39.664Z,1012.27
2018-04-27T02:27:39.661Z,1012.29
2018-04-27T02:28:39.734Z,1012.27
2018-04-27T02:29:39.702Z,1012.31
2018-04-27T02:30:39.689Z,1012.27
2018-04-27T02:31:39.718Z,1012.29
2018-04-27T02:32:39.717Z,1012.34
2018-04-27T02:33:39.723Z,1012.32
2018-04-27T02:34:39.760Z,1012.31
2018-04-27T02:35:39.737Z,1012.30
2018-04-27T02:36:39.756Z,1012.34
2018-04-27T02:37:39.757Z,1012.31
2018-04-27T02:38:39.758Z,1012.32
2018-04-27T02:39:39.798Z,1012.35
2018-04-27T02:40:39.782Z,1012.36
2018-04-27T02:41:39.800Z,1012.32
2018-04-27T02:42:39.789Z,1012.36
2018-04-27T02:43:39.799Z,1012.38
2018-04-27T02:44:39.868Z,1012.34
2018-04-27T02:45:39.846Z,1012.30
2018-04-27T02:46:39.873Z,1012.35
2018-04-27T02:47:39.847Z,1012.30
2018-04-27T02:48:39.860Z,1012.29
2018-04-27T02:49:39.858Z,1012.29
2018-04-27T02:50:39.860Z,1012.26
2018-04-27T02:51:39.886Z,1012.29
2018-04-27T02:52:39.931Z,1012.25
2018-04-27T02:53:39.893Z,1012.30
2018-04-27T02:54:39.893Z,1012.32
2018-04-27T02:55:39.909Z,1012.30
2018-04-27T02:56:39.918Z,1012.30
2018-04-27T02:57:39.925Z,1012.31
2018-04-27T02:58:39.970Z,1012.28
2018-04-27T02:59:39.943Z,1012.30
2018-04-27T03:00:39.953Z,1012.27
2018-04-27T03:01:39.958Z,1012.30
2018-04-27T03:02:39.969Z,1012.27
2018-04-27T03:03:39.998Z,1012.30
2018-04-27T03:04:39.976Z,1012.26
2018-04-27T03:05:39.991Z,1012.26
2018-04-27T03:06:39.994Z,1012.25
2018-04-27T03:07:40.016Z,1012.29
2018-04-27T03:08:40.048Z,1012.27
2018-04-27T03:09:40.031Z,1012.23
2018-04-27T03:10:40.027Z,1012.29
2018-04-27T03:11:40.033Z,1012.25
2018-04-27T03:12:40.055Z,1012.26
2018-04-27T03:13:40.098Z,1012.27
2018-04-27T03:14:40.103Z,1012.26
2018-04-27T03:15:40.071Z,1012.22
2018-04-27T03:16:40.110Z,1012.25
2018-04-27T03:17:40.088Z,1012.24
2018-04-27T03:18:40.104Z,1012.26
2018-04-27T03:19:40.146Z,1012.23
2018-04-27T03:20:40.113Z,1012.24
2018-04-27T03:21:40.130Z,1012.23
2018-04-27T03:22:40.134Z,1012.29
2018-04-27T03:23:40.163Z,1012.23
2018-04-27T03:24:40.193Z,1012.22
2018-04-27T03:25:40.187Z,1012.26
2018-04-27T03:26:40.162Z,1012.27
2018-04-27T03:27:40.191Z,1012.25
2018-04-27T03:28:40.187Z,1012.21
2018-04-27T03:29:40.197Z,1012.20
2018-04-27T03:30:40.247Z,1012.18
2018-04-27T03:31:40.236Z,1012.18
2018-04-27T03:32:40.213Z,1012.21
2018-04-27T03:33:40.221Z,1012.20
2018-04-27T03:34:40.252Z,1012.20
2018-04-27T03:35:40.246Z,1012.20
2018-04-27T03:36:40.298Z,1012.17
2018-04-27T03:37:40.253Z,1012.22
2018-04-27T03:38:40.273Z,1012.22
2018-04-27T03:39:40.281Z,1012.23
2018-04-27T03:40:40.277Z,1012.25
2018-04-27T03:41:40.340Z,1012.24
2018-04-27T03:42:40.304Z,1012.30
2018-04-27T03:43:40.310Z,1012.27
2018-04-27T03:44:40.321Z,1012.27
2018-04-27T03:45:40.348Z,1012.25
2018-04-27T03:46:40.337Z,1012.20
2018-04-27T03:47:40.368Z,1012.22
2018-04-27T03:48:40.388Z,1012.20
2018-04-27T03:49:40.351Z,1012.22
2018-04-27T03:50:40.361Z,1012.22
2018-04-27T03:51:40.381Z,1012.23
2018-04-27T03:52:40.397Z,1012.23
2018-04-27T03:55:12.427Z,1012.24
2018-04-27T03:56:12.418Z,1012.27
2018-04-27T03:57:12.427Z,1012.27
2018-04-27T03:58:12.428Z,1012.28
2018-04-27T03:59:12.462Z,1012.27
2018-04-27T04:00:12.492Z,1012.27
2018-04-27T04:01:12.543Z,1012.26
2018-04-27T04:02:12.470Z,1012.26
2018-04-27T04:03:12.494Z,1012.26
2018-04-27T04:04:12.475Z,1012.31
2018-04-27T04:05:12.497Z,1012.30
2018-04-27T04:06:12.541Z,1012.31
2018-04-27T04:07:12.516Z,1012.29
2018-04-27T04:08:12.514Z,1012.34
2018-04-27T04:09:12.516Z,1012.33
2018-04-27T04:10:12.544Z,1012.32
2018-04-27T04:11:12.570Z,1012.33
2018-04-27T04:12:12.583Z,1012.37
2018-04-27T04:13:12.565Z,1012.37
2018-04-27T04:14:12.557Z,1012.41
2018-04-27T04:15:12.577Z,1012.41
2018-04-27T04:16:12.584Z,1012.40
2018-04-27T04:17:12.630Z,1012.43
2018-04-27T04:18:12.600Z,1012.43
2018-04-27T04:19:12.598Z,1012.44
2018-04-27T04:20:12.607Z,1012.45
2018-04-27T04:21:12.633Z,1012.44
2018-04-27T04:22:12.622Z,1012.49
2018-04-27T04:23:12.667Z,1012.47
2018-04-27T04:24:12.640Z,1012.48
2018-04-27T04:25:12.649Z,1012.53
2018-04-27T04:26:12.667Z,1012.52
2018-04-27T04:27:12.676Z,1012.56
2018-04-27T04:28:12.739Z,1012.57
2018-04-27T04:29:12.712Z,1012.56
2018-04-27T04:30:12.702Z,1012.56
2018-04-27T04:31:12.715Z,1012.56
2018-04-27T04:32:12.749Z,1012.59
2018-04-27T04:33:12.755Z,1012.56
2018-04-27T04:34:12.738Z,1012.59
2018-04-27T04:35:12.756Z,1012.60
2018-04-27T04:36:12.825Z,1012.60
2018-04-27T04:37:12.762Z,1012.62
2018-04-27T04:38:12.824Z,1012.61
2018-04-27T04:39:12.781Z,1012.66
2018-04-27T04:40:12.791Z,1012.64
2018-04-27T04:41:12.845Z,1012.68
2018-04-27T04:42:12.809Z,1012.69
2018-04-27T04:43:12.819Z,1012.71
2018-04-27T04:44:12.827Z,1012.71
2018-04-27T04:45:12.908Z,1012.73
2018-04-27T04:46:12.882Z,1012.70
2018-04-27T04:47:12.855Z,1012.77
2018-04-27T04:48:12.892Z,1012.78
2018-04-27T04:49:12.878Z,1012.77
2018-04-27T04:50:12.899Z,1012.76
2018-04-27T04:51:12.887Z,1012.79
2018-04-27T04:52:12.887Z,1012.79
2018-04-27T04:53:12.941Z,1012.81
2018-04-27T04:54:12.908Z,1012.74
2018-04-27T04:55:12.925Z,1012.71
2018-04-27T04:56:12.934Z,1012.72
2018-04-27T04:57:12.960Z,1012.77
2018-04-27T04:58:12.998Z,1012.79
2018-04-27T04:59:12.964Z,1012.84
2018-04-27T05:00:12.967Z,1012.85
2018-04-27T05:01:12.973Z,1012.83
2018-04-27T05:02:12.990Z,1012.75
2018-04-27T05:03:13.035Z,1012.83
2018-04-27T05:04:13.009Z,1012.77
2018-04-27T05:05:13.019Z,1012.77
2018-04-27T05:06:13.034Z,1012.79
2018-04-27T05:07:13.028Z,1012.81
2018-04-27T05:08:13.153Z,1012.82
2018-04-27T05:09:13.073Z,1012.89
2018-04-27T05:10:13.096Z,1012.85
2018-04-27T05:11:13.076Z,1012.88
2018-04-27T05:12:13.088Z,1012.79
2018-04-27T05:13:13.089Z,1012.88
2018-04-27T05:14:13.111Z,1012.94
2018-04-27T05:15:13.155Z,1012.91
2018-04-27T05:16:13.131Z,1012.98
2018-04-27T05:17:13.132Z,1013.03
2018-04-27T05:18:13.149Z,1013.07
2018-04-27T05:19:13.173Z,1013.04
2018-04-27T05:20:13.201Z,1013.06
2018-04-27T05:21:13.181Z,1013.03
2018-04-27T05:22:13.190Z,1013.04
2018-04-27T05:23:13.195Z,1012.95
2018-04-27T05:24:13.232Z,1013.00
2018-04-27T05:25:13.259Z,1013.00
2018-04-27T05:26:13.242Z,1012.98
2018-04-27T05:27:13.241Z,1013.00
2018-04-27T05:28:13.255Z,1013.15
2018-04-27T05:29:13.267Z,1013.20
2018-04-27T05:30:13.308Z,1013.07
2018-04-27T05:31:13.290Z,1013.11
2018-04-27T05:32:13.294Z,1013.12
2018-04-27T05:33:13.322Z,1013.06
2018-04-27T05:34:13.308Z,1013.04
2018-04-27T05:35:13.366Z,1013.05
2018-04-27T05:36:13.329Z,1013.05
2018-04-27T05:37:13.362Z,1013.02
2018-04-27T05:38:13.364Z,1012.98
2018-04-27T05:39:13.360Z,1013.02
2018-04-27T05:40:13.410Z,1012.98
2018-04-27T05:41:13.459Z,1013.01
2018-04-27T05:42:13.395Z,1012.99
2018-04-27T05:43:13.402Z,1013.00
2018-04-27T05:44:13.435Z,1012.97
2018-04-27T05:45:13.431Z,1012.93
2018-04-27T05:46:13.477Z,1012.95
2018-04-27T05:47:13.455Z,1012.93
2018-04-27T05:48:13.550Z,1012.88
2018-04-27T05:49:13.504Z,1012.89
2018-04-27T05:50:13.480Z,1012.92
2018-04-27T05:51:13.549Z,1012.92
2018-04-27T05:52:13.550Z,1012.93
2018-04-27T05:53:13.508Z,1012.90
2018-04-27T05:54:13.527Z,1012.91
2018-04-27T05:55:13.541Z,1012.89
2018-04-27T05:56:13.541Z,1012.89
2018-04-27T05:57:13.596Z,1012.89
2018-04-27T05:58:13.565Z,1012.89
2018-04-27T05:59:13.581Z,1012.89
2018-04-27T06:00:13.586Z,1012.87
2018-04-27T06:01:13.597Z,1012.88
2018-04-27T06:02:13.651Z,1012.86
2018-04-27T06:03:13.626Z,1012.88
2018-04-27T06:04:13.636Z,1012.91
2018-04-27T06:05:13.633Z,1012.88
2018-04-27T06:06:13.674Z,1012.88
2018-04-27T06:07:13.693Z,1012.87
2018-04-27T06:08:13.674Z,1012.85
2018-04-27T06:09:13.686Z,1012.89
2018-04-27T06:10:13.725Z,1012.89
2018-04-27T06:11:13.695Z,1012.92
2018-04-27T06:12:13.757Z,1012.86
2018-04-27T06:13:13.729Z,1012.92
2018-04-27T06:14:13.740Z,1012.91
2018-04-27T06:15:13.736Z,1012.91
2018-04-27T06:16:13.793Z,1012.96
2018-04-27T06:17:13.819Z,1012.93
2018-04-27T06:18:13.778Z,1012.86
2018-04-27T06:19:13.779Z,1012.88
2018-04-27T06:20:13.803Z,1012.87
2018-04-27T06:21:13.823Z,1012.91
2018-04-27T06:22:13.870Z,1012.92
2018-04-27T06:23:13.828Z,1012.90
2018-04-27T06:24:13.848Z,1012.90
2018-04-27T06:25:13.844Z,1013.04
2018-04-27T06:26:13.866Z,1013.07
2018-04-27T06:27:13.907Z,1013.01
2018-04-27T06:28:13.886Z,1012.94
2018-04-27T06:29:13.893Z,1012.90
2018-04-27T06:30:13.896Z,1012.88
2018-04-27T06:31:13.905Z,1012.84
2018-04-27T06:32:13.949Z,1012.82
2018-04-27T06:33:13.973Z,1012.83
2018-04-27T06:34:13.982Z,1012.83
2018-04-27T06:35:13.955Z,1012.86
2018-04-27T06:36:13.969Z,1012.82
2018-04-27T06:37:13.981Z,1012.81
2018-04-27T06:38:13.975Z,1012.78
2018-04-27T06:39:14.014Z,1012.84
2018-04-27T06:40:14.025Z,1012.82
2018-04-27T06:41:14.052Z,1012.81
2018-04-27T06:42:14.024Z,1012.78
2018-04-27T06:43:14.053Z,1012.77
2018-04-27T06:44:14.050Z,1012.76
2018-04-27T06:45:14.050Z,1012.77
2018-04-27T06:46:14.114Z,1012.78
2018-04-27T06:47:14.095Z,1012.77
2018-04-27T06:48:14.095Z,1012.75
2018-04-27T06:49:14.093Z,1012.72
2018-04-27T06:50:14.127Z,1012.76
2018-04-27T06:51:14.112Z,1012.77
2018-04-27T06:52:14.163Z,1012.73
2018-04-27T06:53:14.145Z,1012.74
2018-04-27T06:54:14.148Z,1012.70
2018-04-27T06:55:14.155Z,1012.72
2018-04-27T06:56:14.214Z,1012.74
2018-04-27T06:57:14.192Z,1012.76
2018-04-27T06:58:14.189Z,1012.74
2018-04-27T06:59:14.240Z,1012.70
2018-04-27T07:00:14.219Z,1012.70
2018-04-27T07:01:14.271Z,1012.67
2018-04-27T07:02:14.233Z,1012.66
2018-04-27T07:03:14.288Z,1012.67
2018-04-27T07:04:14.253Z,1012.64
2018-04-27T07:05:14.349Z,1012.66
2018-04-27T07:06:14.273Z,1012.67
2018-04-27T07:07:14.285Z,1012.67
2018-04-27T07:08:14.336Z,1012.66
2018-04-27T07:09:14.321Z,1012.66
2018-04-27T07:10:14.345Z,1012.66
2018-04-27T07:11:14.402Z,1012.62
2018-04-27T07:12:14.343Z,1012.63
2018-04-27T07:13:14.347Z,1012.62
2018-04-27T07:14:14.368Z,1012.66
2018-04-27T07:15:14.379Z,1012.62
2018-04-27T07:16:14.392Z,1012.66
2018-04-27T07:17:14.422Z,1012.67
2018-04-27T07:18:14.424Z,1012.67
2018-04-27T07:19:14.417Z,1012.67
2018-04-27T07:20:14.493Z,1012.65
2018-04-27T07:21:14.434Z,1012.69
2018-04-27T07:22:14.452Z,1012.68
2018-04-27T07:23:14.471Z,1012.66
2018-04-27T07:24:14.465Z,1012.69
2018-04-27T07:25:14.511Z,1012.67
2018-04-27T07:26:14.498Z,1012.67
2018-04-27T07:27:14.495Z,1012.64
2018-04-27T07:28:14.507Z,1012.63
2018-04-27T07:29:14.533Z,1012.66
2018-04-27T07:30:14.580Z,1012.64
2018-04-27T07:31:14.586Z,1012.63
2018-04-27T07:32:14.554Z,1012.65
2018-04-27T07:33:14.563Z,1012.63
2018-04-27T07:34:14.635Z,1012.62
2018-04-27T07:35:14.581Z,1012.62
2018-04-27T07:36:14.622Z,1012.62
2018-04-27T07:37:14.604Z,1012.64
2018-04-27T07:38:14.614Z,1012.59
2018-04-27T07:39:14.625Z,1012.60
2018-04-27T07:40:14.635Z,1012.60
2018-04-27T07:41:14.709Z,1012.59
2018-04-27T07:42:14.703Z,1012.59
2018-04-27T07:43:14.670Z,1012.58
2018-04-27T07:44:14.689Z,1012.57
2018-04-27T07:45:14.770Z,1012.55
2018-04-27T07:46:14.737Z,1012.51
2018-04-27T07:47:14.731Z,1012.52
2018-04-27T07:48:14.731Z,1012.50
2018-04-27T07:49:14.742Z,1012.51
2018-04-27T07:50:14.745Z,1012.50
2018-04-27T07:51:14.779Z,1012.50
2018-04-27T07:52:14.779Z,1012.49
2018-04-27T07:53:14.787Z,1012.52
2018-04-27T07:54:14.788Z,1012.47
2018-04-27T07:55:14.909Z,1012.54
2018-04-27T07:56:14.838Z,1012.49
2018-04-27T07:57:14.837Z,1012.51
2018-04-27T07:58:14.830Z,1012.47
2018-04-27T07:59:14.888Z,1012.45
2018-04-27T08:00:14.863Z,1012.45
2018-04-27T08:01:14.863Z,1012.44
2018-04-27T08:02:14.973Z,1012.45
2018-04-27T08:03:14.914Z,1012.46
2018-04-27T08:04:14.941Z,1012.44
2018-04-27T08:05:14.906Z,1012.40
2018-04-27T08:06:14.926Z,1012.43
2018-04-27T08:07:15.021Z,1012.43
2018-04-27T08:08:14.979Z,1012.40
2018-04-27T08:09:15.000Z,1012.40
2018-04-27T08:10:14.974Z,1012.41
2018-04-27T08:11:15.012Z,1012.41
2018-04-27T08:12:14.992Z,1012.43
2018-04-27T08:13:14.992Z,1012.35
2018-04-27T08:14:15.031Z,1012.35
2018-04-27T08:15:15.061Z,1012.37
2018-04-27T08:16:15.023Z,1012.38
2018-04-27T08:17:15.034Z,1012.39
2018-04-27T08:18:15.079Z,1012.42
2018-04-27T08:19:15.067Z,1012.41
2018-04-27T08:20:15.111Z,1012.41
2018-04-27T08:21:15.081Z,1012.40
2018-04-27T08:22:15.105Z,1012.42
2018-04-27T08:23:15.207Z,1012.43
2018-04-27T08:24:15.112Z,1012.41
2018-04-27T08:25:15.212Z,1012.37
2018-04-27T08:26:15.135Z,1012.39
2018-04-27T08:27:15.155Z,1012.44
2018-04-27T08:28:15.167Z,1012.43
2018-04-27T08:29:15.205Z,1012.41
2018-04-27T08:30:15.250Z,1012.44
2018-04-27T08:31:15.253Z,1012.42
2018-04-27T08:32:15.222Z,1012.40
2018-04-27T08:33:15.219Z,1012.43
2018-04-27T08:34:15.233Z,1012.41
2018-04-27T08:35:15.271Z,1012.45
2018-04-27T08:36:15.349Z,1012.41
2018-04-27T08:37:15.306Z,1012.42
2018-04-27T08:38:15.275Z,1012.39
2018-04-27T08:39:15.275Z,1012.40
2018-04-27T08:40:15.297Z,1012.38
2018-04-27T08:41:15.307Z,1012.39
2018-04-27T08:42:15.398Z,1012.37
2018-04-27T08:43:15.353Z,1012.37
2018-04-27T08:44:15.339Z,1012.38
2018-04-27T08:45:15.340Z,1012.31
2018-04-27T08:46:15.361Z,1012.41
2018-04-27T08:47:15.450Z,1012.33
2018-04-27T08:48:15.376Z,1012.33
2018-04-27T08:49:15.393Z,1012.32
2018-04-27T08:50:15.413Z,1012.36
2018-04-27T08:51:15.415Z,1012.32
2018-04-27T08:52:15.453Z,1012.34
2018-04-27T08:53:15.476Z,1012.27
2018-04-27T08:54:15.450Z,1012.30
2018-04-27T08:55:15.451Z,1012.33
2018-04-27T08:56:15.463Z,1012.32
2018-04-27T08:57:15.485Z,1012.30
2018-04-27T08:58:15.540Z,1012.29
2018-04-27T08:59:15.498Z,1012.27
2018-04-27T09:00:15.503Z,1012.26
2018-04-27T09:01:15.526Z,1012.24
2018-04-27T09:02:15.544Z,1012.22
2018-04-27T09:03:15.584Z,1012.23
2018-04-27T09:04:15.551Z,1012.22
2018-04-27T09:05:15.569Z,1012.22
2018-04-27T09:06:15.595Z,1012.23
2018-04-27T09:07:15.582Z,1012.19
2018-04-27T09:08:15.662Z,1012.19
2018-04-27T09:09:15.627Z,1012.22
2018-04-27T09:10:15.628Z,1012.20
2018-04-27T09:11:15.627Z,1012.19
2018-04-27T09:12:15.655Z,1012.22
2018-04-27T09:13:15.741Z,1012.22
2018-04-27T09:14:15.660Z,1012.17
2018-04-27T09:15:15.670Z,1012.19
2018-04-27T09:16:15.764Z,1012.21
2018-04-27T09:17:15.696Z,1012.19
2018-04-27T09:18:15.759Z,1012.21
2018-04-27T09:19:15.719Z,1012.19
2018-04-27T09:20:15.753Z,1012.17
2018-04-27T09:21:15.748Z,1012.14
2018-04-27T09:22:15.758Z,1012.09
2018-04-27T09:23:15.813Z,1012.11
2018-04-27T09:24:15.767Z,1012.08
2018-04-27T09:25:15.780Z,1012.10
2018-04-27T09:26:15.792Z,1012.10
2018-04-27T09:27:15.825Z,1012.07
2018-04-27T09:28:15.847Z,1012.05
2018-04-27T09:29:15.852Z,1012.09
2018-04-27T09:30:15.859Z,1012.10
2018-04-27T09:31:15.896Z,1012.06
2018-04-27T09:32:15.903Z,1012.04
2018-04-27T09:33:15.872Z,1012.05
2018-04-27T09:34:15.892Z,1012.04
2018-04-27T09:35:15.891Z,1012.03
2018-04-27T09:36:15.938Z,1012.04
2018-04-27T09:37:15.921Z,1012.02
2018-04-27T09:38:15.959Z,1012.04
2018-04-27T09:39:15.932Z,1012.05
2018-04-27T09:40:15.989Z,1012.04
2018-04-27T09:41:15.961Z,1012.04
2018-04-27T09:42:16.046Z,1011.99
2018-04-27T09:43:15.997Z,1011.97
2018-04-27T09:44:15.994Z,1011.98
2018-04-27T09:45:16.022Z,1011.97
2018-04-27T09:46:16.028Z,1011.96
2018-04-27T09:47:16.141Z,1011.99
2018-04-27T09:48:16.041Z,1012.02
2018-04-27T09:49:16.068Z,1011.98
2018-04-27T09:50:16.076Z,1012.04
2018-04-27T09:51:16.119Z,1012.01
2018-04-27T09:52:16.098Z,1011.95
2018-04-27T09:53:16.115Z,1012.00
2018-04-27T09:54:16.142Z,1011.92
2018-04-27T09:55:16.136Z,1011.92
2018-04-27T09:56:16.230Z,1011.91
2018-04-27T09:57:16.168Z,1011.87
2018-04-27T09:58:16.159Z,1011.88
2018-04-27T09:59:16.163Z,1011.87
2018-04-27T10:00:16.237Z,1011.85
2018-04-27T10:01:16.184Z,1011.91
2018-04-27T10:02:16.201Z,1011.84
2018-04-27T10:03:16.209Z,1011.83
2018-04-27T10:04:16.257Z,1011.85
2018-04-27T10:05:16.256Z,1011.83
2018-04-27T10:06:16.253Z,1011.82
2018-04-27T10:07:16.263Z,1011.79
2018-04-27T10:08:16.275Z,1011.76
2018-04-27T10:09:16.328Z,1011.79
2018-04-27T10:10:16.297Z,1011.81
2018-04-27T10:11:16.324Z,1011.82
2018-04-27T10:12:16.321Z,1011.78
2018-04-27T10:13:16.325Z,1011.80
2018-04-27T10:14:16.393Z,1011.76
2018-04-27T10:15:16.432Z,1011.81
2018-04-27T10:16:16.360Z,1011.79
2018-04-27T10:17:16.381Z,1011.73
2018-04-27T10:18:16.394Z,1011.70
2018-04-27T10:19:16.411Z,1011.67
2018-04-27T10:20:16.419Z,1011.67
2018-04-27T10:21:16.453Z,1011.62
2018-04-27T10:22:16.451Z,1011.61
2018-04-27T10:23:16.454Z,1011.59
2018-04-27T10:24:16.448Z,1011.62
2018-04-27T10:25:16.502Z,1011.56
2018-04-27T10:26:16.472Z,1011.55
2018-04-27T10:27:16.496Z,1011.53
2018-04-27T10:28:16.498Z,1011.50
2018-04-27T10:29:16.504Z,1011.49
2018-04-27T10:30:16.611Z,1011.51
2018-04-27T10:31:16.539Z,1011.53
2018-04-27T10:32:16.547Z,1011.53
2018-04-27T10:33:16.576Z,1011.58
2018-04-27T10:34:16.576Z,1011.53
2018-04-27T10:35:16.604Z,1011.56
2018-04-27T10:36:16.624Z,1011.53
2018-04-27T10:37:16.640Z,1011.50
2018-04-27T10:38:16.613Z,1011.48
2018-04-27T10:39:16.652Z,1011.46
2018-04-27T10:40:16.647Z,1011.37
2018-04-27T10:41:16.650Z,1011.35
2018-04-27T10:42:16.683Z,1011.31
2018-04-27T10:43:16.686Z,1011.29
2018-04-27T10:44:16.708Z,1011.28
2018-04-27T10:45:16.702Z,1011.29
2018-04-27T10:46:16.757Z,1011.31
2018-04-27T10:47:16.713Z,1011.29
2018-04-27T10:48:16.757Z,1011.26
2018-04-27T10:49:16.748Z,1011.25
2018-04-27T10:50:16.822Z,1011.23
2018-04-27T10:51:16.798Z,1011.25
2018-04-27T10:52:16.773Z,1011.25
2018-04-27T10:53:16.802Z,1011.27
2018-04-27T10:54:16.805Z,1011.25
2018-04-27T10:55:16.835Z,1011.22
2018-04-27T10:56:16.860Z,1011.20
2018-04-27T10:57:16.842Z,1011.22
2018-04-27T10:58:16.845Z,1011.18
2018-04-27T10:59:16.918Z,1011.18
2018-04-27T11:00:16.868Z,1011.13
2018-04-27T11:01:16.889Z,1011.12
2018-04-27T11:02:16.906Z,1011.09
2018-04-27T11:03:16.930Z,1011.09
2018-04-27T11:04:16.951Z,1011.07
2018-04-27T11:05:16.938Z,1011.06
2018-04-27T11:06:16.955Z,1011.04
2018-04-27T11:07:16.979Z,1011.04
2018-04-27T11:08:16.972Z,1011.03
2018-04-27T11:09:17.001Z,1010.98
2018-04-27T11:10:17.026Z,1010.95
2018-04-27T11:11:17.009Z,1010.96
2018-04-27T11:12:17.021Z,1010.93
2018-04-27T11:13:17.033Z,1010.91
2018-04-27T11:14:17.074Z,1010.96
2018-04-27T11:15:17.054Z,1010.94
2018-04-27T11:16:17.194Z,1010.87
2018-04-27T11:17:17.094Z,1010.82
2018-04-27T11:18:17.081Z,1010.82
2018-04-27T11:19:17.140Z,1010.83
2018-04-27T11:20:17.132Z,1010.81
2018-04-27T11:21:17.131Z,1010.78
2018-04-27T11:22:17.146Z,1010.79
2018-04-27T11:23:17.158Z,1010.76
2018-04-27T11:24:17.188Z,1010.76
2018-04-27T11:25:17.178Z,1010.74
2018-04-27T11:26:17.210Z,1010.74
2018-04-27T11:27:17.188Z,1010.71
2018-04-27T11:28:17.216Z,1010.67
2018-04-27T11:29:17.221Z,1010.69
2018-04-27T11:30:17.231Z,1010.68
2018-04-27T11:31:17.295Z,1010.67
2018-04-27T11:32:17.290Z,1010.68
2018-04-27T11:33:17.266Z,1010.64
2018-04-27T11:34:17.280Z,1010.62
2018-04-27T11:35:17.377Z,1010.62
2018-04-27T11:36:17.335Z,1010.67
2018-04-27T11:37:17.349Z,1010.63
2018-04-27T11:38:17.326Z,1010.60
2018-04-27T11:39:17.346Z,1010.57
2018-04-27T11:40:17.343Z,1010.52
2018-04-27T11:41:17.448Z,1010.52
2018-04-27T11:42:17.418Z,1010.50
2018-04-27T11:43:17.403Z,1010.49
2018-04-27T11:44:17.394Z,1010.53
2018-04-27T11:45:17.416Z,1010.53
2018-04-27T11:46:17.428Z,1010.53
2018-04-27T11:47:17.503Z,1010.52
2018-04-27T11:48:17.449Z,1010.49
2018-04-27T11:49:17.452Z,1010.40
2018-04-27T11:50:17.465Z,1010.47
2018-04-27T11:51:17.474Z,1010.44
2018-04-27T11:52:17.523Z,1010.45
2018-04-27T11:53:17.505Z,1010.45
2018-04-27T11:54:17.543Z,1010.41
2018-04-27T11:55:17.532Z,1010.35
2018-04-27T11:56:17.548Z,1010.35
2018-04-27T11:57:17.587Z,1010.40
2018-04-27T11:58:17.624Z,1010.37
2018-04-27T11:59:17.601Z,1010.39
2018-04-27T12:00:17.596Z,1010.37
2018-04-27T12:01:17.654Z,1010.36
2018-04-27T12:02:17.616Z,1010.34
2018-04-27T12:03:17.639Z,1010.34
2018-04-27T12:04:17.642Z,1010.35
2018-04-27T12:05:17.662Z,1010.34
2018-04-27T12:06:17.695Z,1010.38
2018-04-27T12:07:17.671Z,1010.39